Aérodrome :
LOGIN :

S'inscrire | Disclaimer

   EN    FR    IT 

 










Légende :    VFR   VFR Marginal   IFR   IFR Intensif   IFR Très Intensif
Visi : 
Plafond : 
>= 8 km
>= 3000ft
5 à 8 km
1000 à 3000 ft
1500m à 5 km
500 à 1000 ft
800 à 1500m
200 à 500 ft
< 800m
< 200 ft
Symboles :   Orages  Brouillard  Fortes neiges  Fortes précipitations  Vent > 20 kt
SIGMETs :   Divers  Orages  Givrage  Turbulence  Onde Orograph.  Cendres Volcan.







- Altitude de l'aérodrome : 13 ft
- Code IATA : LYX
- Voir les cartes d'approche


EGMD - Lydd

DERNIER METAR :
  • 011720Z 24003KT 7000 BKN003 06/06 Q0998

METARs EXPIRÉS :
  • 011650Z 23003KT 4000 BR OVC003 06/06 Q0998
  • 011620Z 21005KT 4000 HZ SCT005 BKN008 BKN013 07/06 Q0998
  • 011550Z 19008KT 9999 SCT008 BKN017 07/05 Q0998
  • 011520Z 21010KT 9999 FEW010 BKN021 07/05 Q0998
  • 011450Z 21012KT 9999 FEW014 BKN047 08/06 Q0999

TAF TAF EGMD
Valide du 01 à 18h jusqu'au 02 à 03h UTC


011659Z 0118/0203 25005KT 9999 FEW030
BECMG 0118/0121 25015KT
TEMPO 0118/0123 4000 RADZ BKN004
BECMG 0121/0124 26025G35KT
ATIS : +44 1797 322 422
Pas de NOTAMs connus pour ce terrain.
1 SIGMET publié pour la FIR London (EGTT) :
 
Turbulence forte
EGTT SIGMET 01 VALID 011630/012000 EGRR
EGTT LONDON FIR SEV TURB FCST SW OF LINE N5113 W00736 - N4945 W00318 SFC/FL060 MOV ENE 25KT INTSF=



MET'MAP, la Météo Aéronautique d'un coup d'oeil ! - Copyright ORBIFLY Décembre 2007 - Disclaimer

ORBIFLY MET'MAP TEAM :

Programmation & Développement : Alexandra Zaïnal
Conception & Développement : Baudouin d'Aumeries
Co-Programmation & Développement : Marc-Olivier Méhu
Soutien technique & logistique : Manuel Goepfert

Contact : metmap@orbifly.com




SOURCES & CREDITS :

   NOAA